sensor_id;sensor_type;location;lat;lon;timestamp;P1;durP1;ratioP1;P2;durP2;ratioP2
47784;SDS011;35233;55.686;37.848;2023-09-12T00:01:05;18.80;;;14.98;;
47784;SDS011;35233;55.686;37.848;2023-09-12T00:03:31;19.65;;;14.90;;
47784;SDS011;35233;55.686;37.848;2023-09-12T00:05:58;19.63;;;15.82;;
47784;SDS011;35233;55.686;37.848;2023-09-12T00:08:25;20.35;;;16.00;;
47784;SDS011;35233;55.686;37.848;2023-09-12T00:13:30;19.63;;;15.00;;
47784;SDS011;35233;55.686;37.848;2023-09-12T00:15:56;20.48;;;15.02;;
47784;SDS011;35233;55.686;37.848;2023-09-12T00:18:22;19.52;;;15.00;;
47784;SDS011;35233;55.686;37.848;2023-09-12T00:20:47;18.73;;;14.25;;
47784;SDS011;35233;55.686;37.848;2023-09-12T00:23:13;17.77;;;13.70;;
47784;SDS011;35233;55.686;37.848;2023-09-12T00:25:38;17.88;;;13.85;;
47784;SDS011;35233;55.686;37.848;2023-09-12T00:28:04;18.55;;;14.50;;
47784;SDS011;35233;55.686;37.848;2023-09-12T00:30:30;16.92;;;13.68;;
47784;SDS011;35233;55.686;37.848;2023-09-12T00:32:55;17.40;;;14.10;;
47784;SDS011;35233;55.686;37.848;2023-09-12T00:35:20;17.88;;;14.45;;
47784;SDS011;35233;55.686;37.848;2023-09-12T00:37:46;18.75;;;14.95;;
47784;SDS011;35233;55.686;37.848;2023-09-12T00:40:11;18.15;;;13.95;;
47784;SDS011;35233;55.686;37.848;2023-09-12T00:42:37;17.65;;;14.50;;
47784;SDS011;35233;55.686;37.848;2023-09-12T00:45:03;18.15;;;14.68;;
47784;SDS011;35233;55.686;37.848;2023-09-12T00:47:28;18.13;;;14.57;;
47784;SDS011;35233;55.686;37.848;2023-09-12T00:49:55;16.42;;;13.68;;
47784;SDS011;35233;55.686;37.848;2023-09-12T00:52:23;18.30;;;14.27;;
47784;SDS011;35233;55.686;37.848;2023-09-12T00:54:51;18.90;;;14.02;;
47784;SDS011;35233;55.686;37.848;2023-09-12T00:57:16;18.77;;;14.55;;
47784;SDS011;35233;55.686;37.848;2023-09-12T00:59:42;19.45;;;14.10;;
47784;SDS011;35233;55.686;37.848;2023-09-12T01:02:08;19.17;;;14.13;;
47784;SDS011;35233;55.686;37.848;2023-09-12T01:04:34;18.15;;;13.55;;
47784;SDS011;35233;55.686;37.848;2023-09-12T01:07:04;18.23;;;13.75;;
47784;SDS011;35233;55.686;37.848;2023-09-12T01:09:30;17.10;;;13.85;;
47784;SDS011;35233;55.686;37.848;2023-09-12T01:11:56;17.55;;;13.55;;
47784;SDS011;35233;55.686;37.848;2023-09-12T01:14:22;18.13;;;14.07;;
47784;SDS011;35233;55.686;37.848;2023-09-12T01:16:48;16.58;;;13.68;;
47784;SDS011;35233;55.686;37.848;2023-09-12T01:19:14;17.63;;;13.23;;
47784;SDS011;35233;55.686;37.848;2023-09-12T01:21:52;16.80;;;13.25;;
47784;SDS011;35233;55.686;37.848;2023-09-12T01:27:22;16.58;;;13.35;;
47784;SDS011;35233;55.686;37.848;2023-09-12T01:30:01;18.25;;;13.55;;
47784;SDS011;35233;55.686;37.848;2023-09-12T01:32:29;17.48;;;13.13;;
47784;SDS011;35233;55.686;37.848;2023-09-12T01:34:56;17.67;;;13.90;;
47784;SDS011;35233;55.686;37.848;2023-09-12T01:37:21;15.95;;;12.85;;
47784;SDS011;35233;55.686;37.848;2023-09-12T01:39:47;17.85;;;13.60;;
47784;SDS011;35233;55.686;37.848;2023-09-12T01:42:13;16.65;;;13.07;;
47784;SDS011;35233;55.686;37.848;2023-09-12T01:44:43;15.60;;;13.18;;
47784;SDS011;35233;55.686;37.848;2023-09-12T01:47:10;17.27;;;13.30;;
47784;SDS011;35233;55.686;37.848;2023-09-12T01:49:39;16.55;;;13.32;;
47784;SDS011;35233;55.686;37.848;2023-09-12T01:52:07;16.20;;;12.48;;
47784;SDS011;35233;55.686;37.848;2023-09-12T01:54:33;14.63;;;12.35;;
47784;SDS011;35233;55.686;37.848;2023-09-12T01:56:59;16.30;;;12.90;;
47784;SDS011;35233;55.686;37.848;2023-09-12T01:59:26;17.50;;;12.90;;
47784;SDS011;35233;55.686;37.848;2023-09-12T02:01:53;15.70;;;12.98;;
47784;SDS011;35233;55.686;37.848;2023-09-12T02:04:18;16.88;;;12.93;;
47784;SDS011;35233;55.686;37.848;2023-09-12T02:06:44;17.75;;;12.75;;
47784;SDS011;35233;55.686;37.848;2023-09-12T02:09:09;16.70;;;12.52;;
47784;SDS011;35233;55.686;37.848;2023-09-12T02:11:35;17.48;;;12.77;;
47784;SDS011;35233;55.686;37.848;2023-09-12T02:14:00;16.23;;;12.77;;
47784;SDS011;35233;55.686;37.848;2023-09-12T02:16:26;17.40;;;12.85;;
47784;SDS011;35233;55.686;37.848;2023-09-12T02:18:51;15.93;;;12.40;;
47784;SDS011;35233;55.686;37.848;2023-09-12T02:21:17;17.50;;;13.10;;
47784;SDS011;35233;55.686;37.848;2023-09-12T02:23:43;15.55;;;12.32;;
47784;SDS011;35233;55.686;37.848;2023-09-12T02:26:08;16.88;;;13.13;;
47784;SDS011;35233;55.686;37.848;2023-09-12T02:28:34;15.00;;;12.20;;
47784;SDS011;35233;55.686;37.848;2023-09-12T02:30:59;15.63;;;12.13;;
47784;SDS011;35233;55.686;37.848;2023-09-12T02:33:25;15.85;;;13.00;;
47784;SDS011;35233;55.686;37.848;2023-09-12T02:35:50;16.20;;;13.05;;
47784;SDS011;35233;55.686;37.848;2023-09-12T02:38:17;14.25;;;11.75;;
47784;SDS011;35233;55.686;37.848;2023-09-12T02:40:43;16.70;;;12.48;;
47784;SDS011;35233;55.686;37.848;2023-09-12T02:43:08;14.68;;;12.30;;
47784;SDS011;35233;55.686;37.848;2023-09-12T02:45:34;18.42;;;12.60;;
47784;SDS011;35233;55.686;37.848;2023-09-12T02:48:00;15.05;;;12.13;;
47784;SDS011;35233;55.686;37.848;2023-09-12T02:50:25;14.95;;;11.75;;
47784;SDS011;35233;55.686;37.848;2023-09-12T02:52:51;16.20;;;12.50;;
47784;SDS011;35233;55.686;37.848;2023-09-12T02:55:17;16.08;;;11.98;;
47784;SDS011;35233;55.686;37.848;2023-09-12T02:57:42;15.65;;;12.75;;
47784;SDS011;35233;55.686;37.848;2023-09-12T03:00:08;17.40;;;13.02;;
47784;SDS011;35233;55.686;37.848;2023-09-12T03:02:34;14.85;;;11.95;;
47784;SDS011;35233;55.686;37.848;2023-09-12T03:05:00;16.73;;;12.75;;
47784;SDS011;35233;55.686;37.848;2023-09-12T03:07:26;16.00;;;11.98;;
47784;SDS011;35233;55.686;37.848;2023-09-12T03:09:52;15.15;;;11.93;;
47784;SDS011;35233;55.686;37.848;2023-09-12T03:12:17;17.52;;;13.32;;
47784;SDS011;35233;55.686;37.848;2023-09-12T03:14:43;14.73;;;12.13;;
47784;SDS011;35233;55.686;37.848;2023-09-12T03:17:08;16.08;;;12.05;;
47784;SDS011;35233;55.686;37.848;2023-09-12T03:19:34;15.77;;;12.45;;
47784;SDS011;35233;55.686;37.848;2023-09-12T03:21:59;14.45;;;11.35;;
47784;SDS011;35233;55.686;37.848;2023-09-12T03:24:25;15.43;;;11.98;;
47784;SDS011;35233;55.686;37.848;2023-09-12T03:26:51;14.15;;;11.63;;
47784;SDS011;35233;55.686;37.848;2023-09-12T03:29:16;15.25;;;11.82;;
47784;SDS011;35233;55.686;37.848;2023-09-12T03:31:42;15.05;;;11.55;;
47784;SDS011;35233;55.686;37.848;2023-09-12T03:34:08;13.63;;;11.40;;
47784;SDS011;35233;55.686;37.848;2023-09-12T03:36:33;15.82;;;11.55;;
47784;SDS011;35233;55.686;37.848;2023-09-12T03:38:59;15.90;;;12.63;;
47784;SDS011;35233;55.686;37.848;2023-09-12T03:41:24;14.25;;;11.25;;
47784;SDS011;35233;55.686;37.848;2023-09-12T03:43:53;14.32;;;11.52;;
47784;SDS011;35233;55.686;37.848;2023-09-12T03:46:20;14.48;;;10.90;;
47784;SDS011;35233;55.686;37.848;2023-09-12T03:48:46;14.32;;;11.57;;
47784;SDS011;35233;55.686;37.848;2023-09-12T03:51:12;15.38;;;11.60;;
47784;SDS011;35233;55.686;37.848;2023-09-12T03:53:38;14.05;;;11.02;;
47784;SDS011;35233;55.686;37.848;2023-09-12T03:56:04;14.98;;;11.65;;
47784;SDS011;35233;55.686;37.848;2023-09-12T03:58:29;15.32;;;11.80;;
47784;SDS011;35233;55.686;37.848;2023-09-12T04:00:55;14.20;;;11.45;;
47784;SDS011;35233;55.686;37.848;2023-09-12T04:03:20;14.60;;;11.05;;
47784;SDS011;35233;55.686;37.848;2023-09-12T04:05:47;13.68;;;10.70;;
47784;SDS011;35233;55.686;37.848;2023-09-12T04:08:12;14.02;;;11.23;;
47784;SDS011;35233;55.686;37.848;2023-09-12T04:10:38;15.05;;;11.40;;
47784;SDS011;35233;55.686;37.848;2023-09-12T04:13:04;15.07;;;10.82;;
47784;SDS011;35233;55.686;37.848;2023-09-12T04:15:29;13.18;;;10.13;;
47784;SDS011;35233;55.686;37.848;2023-09-12T04:17:55;12.80;;;10.32;;
47784;SDS011;35233;55.686;37.848;2023-09-12T04:20:20;11.98;;;10.05;;
47784;SDS011;35233;55.686;37.848;2023-09-12T04:22:46;12.27;;;9.55;;
47784;SDS011;35233;55.686;37.848;2023-09-12T04:25:12;14.82;;;10.65;;
47784;SDS011;35233;55.686;37.848;2023-09-12T04:27:38;13.52;;;10.20;;
47784;SDS011;35233;55.686;37.848;2023-09-12T04:30:03;15.85;;;10.30;;
47784;SDS011;35233;55.686;37.848;2023-09-12T04:32:29;13.25;;;10.27;;
47784;SDS011;35233;55.686;37.848;2023-09-12T04:34:55;12.85;;;10.55;;
47784;SDS011;35233;55.686;37.848;2023-09-12T04:37:20;14.50;;;10.50;;
47784;SDS011;35233;55.686;37.848;2023-09-12T04:39:46;16.25;;;10.70;;
47784;SDS011;35233;55.686;37.848;2023-09-12T04:42:11;17.27;;;10.52;;
47784;SDS011;35233;55.686;37.848;2023-09-12T04:44:39;15.63;;;10.70;;
47784;SDS011;35233;55.686;37.848;2023-09-12T04:47:05;14.23;;;10.18;;
47784;SDS011;35233;55.686;37.848;2023-09-12T04:49:31;14.50;;;10.55;;
47784;SDS011;35233;55.686;37.848;2023-09-12T04:51:56;15.70;;;10.23;;
47784;SDS011;35233;55.686;37.848;2023-09-12T04:54:22;16.40;;;9.85;;
47784;SDS011;35233;55.686;37.848;2023-09-12T04:56:47;12.93;;;10.35;;
47784;SDS011;35233;55.686;37.848;2023-09-12T04:59:13;13.65;;;10.00;;
47784;SDS011;35233;55.686;37.848;2023-09-12T05:01:38;16.40;;;10.55;;
47784;SDS011;35233;55.686;37.848;2023-09-12T05:04:04;12.73;;;9.48;;
47784;SDS011;35233;55.686;37.848;2023-09-12T05:06:29;14.63;;;10.10;;
47784;SDS011;35233;55.686;37.848;2023-09-12T05:08:55;14.25;;;10.30;;
47784;SDS011;35233;55.686;37.848;2023-09-12T05:11:21;12.50;;;9.38;;
47784;SDS011;35233;55.686;37.848;2023-09-12T05:13:48;14.30;;;10.75;;
47784;SDS011;35233;55.686;37.848;2023-09-12T05:16:14;14.57;;;10.90;;
47784;SDS011;35233;55.686;37.848;2023-09-12T05:18:40;13.43;;;10.57;;
47784;SDS011;35233;55.686;37.848;2023-09-12T05:21:05;16.17;;;11.18;;
47784;SDS011;35233;55.686;37.848;2023-09-12T05:23:31;18.20;;;11.27;;
47784;SDS011;35233;55.686;37.848;2023-09-12T05:25:56;14.43;;;10.48;;
47784;SDS011;35233;55.686;37.848;2023-09-12T05:28:22;16.92;;;10.73;;
47784;SDS011;35233;55.686;37.848;2023-09-12T05:30:50;14.13;;;10.75;;
47784;SDS011;35233;55.686;37.848;2023-09-12T05:33:15;16.25;;;11.65;;
47784;SDS011;35233;55.686;37.848;2023-09-12T05:35:41;15.90;;;11.23;;
47784;SDS011;35233;55.686;37.848;2023-09-12T05:38:06;17.30;;;11.30;;
47784;SDS011;35233;55.686;37.848;2023-09-12T05:40:32;16.08;;;11.07;;
47784;SDS011;35233;55.686;37.848;2023-09-12T05:42:58;18.00;;;11.45;;
47784;SDS011;35233;55.686;37.848;2023-09-12T05:45:23;16.10;;;11.18;;
47784;SDS011;35233;55.686;37.848;2023-09-12T05:47:49;16.17;;;11.32;;
47784;SDS011;35233;55.686;37.848;2023-09-12T05:50:15;18.40;;;11.25;;
47784;SDS011;35233;55.686;37.848;2023-09-12T05:52:41;18.95;;;12.05;;
47784;SDS011;35233;55.686;37.848;2023-09-12T05:55:10;16.10;;;12.27;;
47784;SDS011;35233;55.686;37.848;2023-09-12T05:57:36;14.95;;;10.50;;
47784;SDS011;35233;55.686;37.848;2023-09-12T06:00:01;14.25;;;10.77;;
47784;SDS011;35233;55.686;37.848;2023-09-12T06:02:35;14.95;;;10.55;;
47784;SDS011;35233;55.686;37.848;2023-09-12T06:05:00;15.43;;;11.32;;
47784;SDS011;35233;55.686;37.848;2023-09-12T06:07:26;17.00;;;11.77;;
47784;SDS011;35233;55.686;37.848;2023-09-12T06:09:52;17.30;;;11.30;;
47784;SDS011;35233;55.686;37.848;2023-09-12T06:12:17;13.68;;;10.98;;
47784;SDS011;35233;55.686;37.848;2023-09-12T06:14:43;15.98;;;11.20;;
47784;SDS011;35233;55.686;37.848;2023-09-12T06:17:09;13.80;;;10.80;;
47784;SDS011;35233;55.686;37.848;2023-09-12T06:19:34;18.58;;;11.15;;
47784;SDS011;35233;55.686;37.848;2023-09-12T06:22:00;12.93;;;9.95;;
47784;SDS011;35233;55.686;37.848;2023-09-12T06:24:25;15.40;;;10.43;;
47784;SDS011;35233;55.686;37.848;2023-09-12T06:26:51;16.83;;;10.50;;
47784;SDS011;35233;55.686;37.848;2023-09-12T06:29:16;14.25;;;11.20;;
47784;SDS011;35233;55.686;37.848;2023-09-12T06:31:42;15.80;;;11.32;;
47784;SDS011;35233;55.686;37.848;2023-09-12T06:34:08;16.67;;;11.10;;
47784;SDS011;35233;55.686;37.848;2023-09-12T06:36:34;14.00;;;10.52;;
47784;SDS011;35233;55.686;37.848;2023-09-12T06:38:59;13.65;;;10.43;;
47784;SDS011;35233;55.686;37.848;2023-09-12T06:41:25;14.73;;;11.02;;
47784;SDS011;35233;55.686;37.848;2023-09-12T06:44:00;14.68;;;10.63;;
47784;SDS011;35233;55.686;37.848;2023-09-12T06:46:30;13.40;;;10.20;;
47784;SDS011;35233;55.686;37.848;2023-09-12T06:48:56;14.27;;;11.13;;
47784;SDS011;35233;55.686;37.848;2023-09-12T06:51:24;16.58;;;10.65;;
47784;SDS011;35233;55.686;37.848;2023-09-12T06:53:53;14.70;;;11.27;;
47784;SDS011;35233;55.686;37.848;2023-09-12T06:56:18;14.15;;;10.55;;
47784;SDS011;35233;55.686;37.848;2023-09-12T06:58:44;13.07;;;10.50;;
47784;SDS011;35233;55.686;37.848;2023-09-12T07:01:09;12.55;;;10.35;;
47784;SDS011;35233;55.686;37.848;2023-09-12T07:03:35;16.50;;;10.98;;
47784;SDS011;35233;55.686;37.848;2023-09-12T07:06:01;12.88;;;10.32;;
47784;SDS011;35233;55.686;37.848;2023-09-12T07:08:29;13.38;;;9.98;;
47784;SDS011;35233;55.686;37.848;2023-09-12T07:10:55;14.00;;;10.05;;
47784;SDS011;35233;55.686;37.848;2023-09-12T07:13:22;12.82;;;9.68;;
47784;SDS011;35233;55.686;37.848;2023-09-12T07:15:49;13.90;;;10.55;;
47784;SDS011;35233;55.686;37.848;2023-09-12T07:18:15;13.43;;;9.85;;
47784;SDS011;35233;55.686;37.848;2023-09-12T07:20:41;14.90;;;11.65;;
47784;SDS011;35233;55.686;37.848;2023-09-12T07:23:06;18.52;;;13.85;;
47784;SDS011;35233;55.686;37.848;2023-09-12T07:25:38;22.40;;;17.10;;
47784;SDS011;35233;55.686;37.848;2023-09-12T07:28:08;23.10;;;17.42;;
47784;SDS011;35233;55.686;37.848;2023-09-12T07:30:34;23.63;;;18.70;;
47784;SDS011;35233;55.686;37.848;2023-09-12T07:33:00;26.70;;;20.25;;
47784;SDS011;35233;55.686;37.848;2023-09-12T07:35:25;31.27;;;21.10;;
47784;SDS011;35233;55.686;37.848;2023-09-12T07:37:51;29.58;;;20.67;;
47784;SDS011;35233;55.686;37.848;2023-09-12T07:40:16;31.60;;;22.20;;
47784;SDS011;35233;55.686;37.848;2023-09-12T07:42:42;31.92;;;23.13;;
47784;SDS011;35233;55.686;37.848;2023-09-12T07:45:08;38.22;;;26.77;;
47784;SDS011;35233;55.686;37.848;2023-09-12T07:47:34;36.75;;;27.45;;
47784;SDS011;35233;55.686;37.848;2023-09-12T07:49:59;38.92;;;27.90;;
47784;SDS011;35233;55.686;37.848;2023-09-12T07:52:29;37.30;;;27.73;;
47784;SDS011;35233;55.686;37.848;2023-09-12T07:55:04;39.00;;;27.25;;
47784;SDS011;35233;55.686;37.848;2023-09-12T07:57:32;36.20;;;26.15;;
47784;SDS011;35233;55.686;37.848;2023-09-12T07:59:59;36.85;;;26.92;;
47784;SDS011;35233;55.686;37.848;2023-09-12T08:02:24;37.50;;;27.42;;
47784;SDS011;35233;55.686;37.848;2023-09-12T08:04:50;41.10;;;30.75;;
47784;SDS011;35233;55.686;37.848;2023-09-12T08:07:16;44.60;;;32.63;;
47784;SDS011;35233;55.686;37.848;2023-09-12T08:09:49;48.65;;;35.47;;
47784;SDS011;35233;55.686;37.848;2023-09-12T08:12:17;50.35;;;34.88;;
47784;SDS011;35233;55.686;37.848;2023-09-12T08:14:43;49.72;;;36.08;;
47784;SDS011;35233;55.686;37.848;2023-09-12T08:17:10;49.97;;;37.00;;
47784;SDS011;35233;55.686;37.848;2023-09-12T08:19:36;54.70;;;40.08;;
47784;SDS011;35233;55.686;37.848;2023-09-12T08:22:01;56.65;;;42.40;;
47784;SDS011;35233;55.686;37.848;2023-09-12T08:24:27;58.08;;;40.63;;
47784;SDS011;35233;55.686;37.848;2023-09-12T08:26:53;56.15;;;41.78;;
47784;SDS011;35233;55.686;37.848;2023-09-12T08:29:19;55.13;;;38.83;;
47784;SDS011;35233;55.686;37.848;2023-09-12T08:31:45;51.90;;;39.20;;
47784;SDS011;35233;55.686;37.848;2023-09-12T08:34:12;54.00;;;39.13;;
47784;SDS011;35233;55.686;37.848;2023-09-12T08:36:38;56.25;;;40.90;;
47784;SDS011;35233;55.686;37.848;2023-09-12T08:39:04;56.80;;;41.17;;
47784;SDS011;35233;55.686;37.848;2023-09-12T08:41:33;58.35;;;43.47;;
47784;SDS011;35233;55.686;37.848;2023-09-12T08:43:59;59.58;;;43.83;;
47784;SDS011;35233;55.686;37.848;2023-09-12T08:46:26;57.90;;;42.00;;
47784;SDS011;35233;55.686;37.848;2023-09-12T08:48:52;56.25;;;41.40;;
47784;SDS011;35233;55.686;37.848;2023-09-12T08:51:24;58.13;;;41.90;;
47784;SDS011;35233;55.686;37.848;2023-09-12T08:53:50;55.95;;;41.67;;
47784;SDS011;35233;55.686;37.848;2023-09-12T08:56:17;53.92;;;41.25;;
47784;SDS011;35233;55.686;37.848;2023-09-12T08:58:44;58.08;;;40.97;;
47784;SDS011;35233;55.686;37.848;2023-09-12T09:01:13;57.85;;;42.25;;
47784;SDS011;35233;55.686;37.848;2023-09-12T09:03:42;59.45;;;44.15;;
47784;SDS011;35233;55.686;37.848;2023-09-12T09:06:09;58.08;;;42.30;;
47784;SDS011;35233;55.686;37.848;2023-09-12T09:08:35;61.60;;;42.92;;
47784;SDS011;35233;55.686;37.848;2023-09-12T09:11:04;52.15;;;39.63;;
47784;SDS011;35233;55.686;37.848;2023-09-12T09:13:33;55.15;;;41.42;;
47784;SDS011;35233;55.686;37.848;2023-09-12T09:21:26;60.88;;;43.63;;
47784;SDS011;35233;55.686;37.848;2023-09-12T09:23:55;58.97;;;44.17;;
47784;SDS011;35233;55.686;37.848;2023-09-12T09:26:24;56.47;;;42.75;;
47784;SDS011;35233;55.686;37.848;2023-09-12T09:29:03;56.53;;;41.80;;
47784;SDS011;35233;55.686;37.848;2023-09-12T09:31:31;56.40;;;40.33;;
47784;SDS011;35233;55.686;37.848;2023-09-12T09:33:58;52.90;;;39.92;;
47784;SDS011;35233;55.686;37.848;2023-09-12T09:36:23;53.83;;;39.80;;
47784;SDS011;35233;55.686;37.848;2023-09-12T09:38:50;53.17;;;39.00;;
47784;SDS011;35233;55.686;37.848;2023-09-12T09:41:15;50.38;;;38.45;;
47784;SDS011;35233;55.686;37.848;2023-09-12T09:43:48;53.42;;;39.55;;
47784;SDS011;35233;55.686;37.848;2023-09-12T09:46:18;52.47;;;40.00;;
47784;SDS011;35233;55.686;37.848;2023-09-12T09:48:50;53.45;;;40.00;;
47784;SDS011;35233;55.686;37.848;2023-09-12T09:51:16;49.25;;;38.25;;
47784;SDS011;35233;55.686;37.848;2023-09-12T09:53:43;49.03;;;37.33;;
47784;SDS011;35233;55.686;37.848;2023-09-12T09:56:09;46.35;;;36.08;;
47784;SDS011;35233;55.686;37.848;2023-09-12T09:58:41;46.72;;;36.28;;
47784;SDS011;35233;55.686;37.848;2023-09-12T10:01:12;47.00;;;36.00;;
47784;SDS011;35233;55.686;37.848;2023-09-12T10:03:43;47.55;;;35.67;;
47784;SDS011;35233;55.686;37.848;2023-09-12T10:06:10;47.70;;;37.13;;
47784;SDS011;35233;55.686;37.848;2023-09-12T10:08:37;46.33;;;36.47;;
47784;SDS011;35233;55.686;37.848;2023-09-12T10:11:05;47.65;;;36.45;;
47784;SDS011;35233;55.686;37.848;2023-09-12T10:13:33;49.97;;;38.55;;
47784;SDS011;35233;55.686;37.848;2023-09-12T10:16:02;50.70;;;38.50;;
47784;SDS011;35233;55.686;37.848;2023-09-12T10:18:31;49.10;;;37.45;;
47784;SDS011;35233;55.686;37.848;2023-09-12T10:21:04;46.95;;;37.10;;
47784;SDS011;35233;55.686;37.848;2023-09-12T10:23:37;49.42;;;38.28;;
47784;SDS011;35233;55.686;37.848;2023-09-12T10:26:08;51.67;;;35.63;;
47784;SDS011;35233;55.686;37.848;2023-09-12T10:28:40;47.97;;;34.90;;
47784;SDS011;35233;55.686;37.848;2023-09-12T10:31:07;45.28;;;35.13;;
47784;SDS011;35233;55.686;37.848;2023-09-12T10:33:34;45.88;;;33.95;;
47784;SDS011;35233;55.686;37.848;2023-09-12T10:36:01;47.15;;;34.58;;
47784;SDS011;35233;55.686;37.848;2023-09-12T10:38:33;45.92;;;34.85;;
47784;SDS011;35233;55.686;37.848;2023-09-12T10:41:05;44.35;;;33.55;;
47784;SDS011;35233;55.686;37.848;2023-09-12T10:43:34;42.78;;;33.50;;
47784;SDS011;35233;55.686;37.848;2023-09-12T10:46:01;43.78;;;32.88;;
47784;SDS011;35233;55.686;37.848;2023-09-12T10:48:29;44.42;;;34.63;;
47784;SDS011;35233;55.686;37.848;2023-09-12T10:50:58;41.10;;;32.38;;
47784;SDS011;35233;55.686;37.848;2023-09-12T10:53:26;40.15;;;31.77;;
47784;SDS011;35233;55.686;37.848;2023-09-12T10:59:22;38.22;;;28.77;;
47784;SDS011;35233;55.686;37.848;2023-09-12T11:01:29;38.00;;;29.42;;
47784;SDS011;35233;55.686;37.848;2023-09-12T11:03:58;36.95;;;28.63;;
47784;SDS011;35233;55.686;37.848;2023-09-12T11:06:44;35.63;;;27.65;;
47784;SDS011;35233;55.686;37.848;2023-09-12T11:11:42;38.17;;;28.13;;
47784;SDS011;35233;55.686;37.848;2023-09-12T11:14:09;36.38;;;27.45;;
47784;SDS011;35233;55.686;37.848;2023-09-12T11:16:35;35.72;;;27.17;;
47784;SDS011;35233;55.686;37.848;2023-09-12T11:19:14;36.00;;;27.25;;
47784;SDS011;35233;55.686;37.848;2023-09-12T11:21:51;36.72;;;26.55;;
47784;SDS011;35233;55.686;37.848;2023-09-12T11:24:19;35.28;;;28.05;;
47784;SDS011;35233;55.686;37.848;2023-09-12T11:27:01;36.30;;;26.77;;
47784;SDS011;35233;55.686;37.848;2023-09-12T11:29:36;34.38;;;26.23;;
47784;SDS011;35233;55.686;37.848;2023-09-12T11:32:03;35.72;;;26.05;;
47784;SDS011;35233;55.686;37.848;2023-09-12T11:34:31;32.92;;;24.90;;
47784;SDS011;35233;55.686;37.848;2023-09-12T11:37:06;34.50;;;25.73;;
47784;SDS011;35233;55.686;37.848;2023-09-12T11:39:33;35.30;;;26.45;;
47784;SDS011;35233;55.686;37.848;2023-09-12T11:42:00;32.03;;;24.63;;
47784;SDS011;35233;55.686;37.848;2023-09-12T11:44:27;33.22;;;23.88;;
47784;SDS011;35233;55.686;37.848;2023-09-12T11:46:55;29.75;;;22.63;;
47784;SDS011;35233;55.686;37.848;2023-09-12T11:49:28;29.92;;;22.77;;
47784;SDS011;35233;55.686;37.848;2023-09-12T11:52:02;30.90;;;22.55;;
47784;SDS011;35233;55.686;37.848;2023-09-12T11:54:28;26.55;;;21.85;;
47784;SDS011;35233;55.686;37.848;2023-09-12T11:56:55;30.52;;;22.17;;
47784;SDS011;35233;55.686;37.848;2023-09-12T11:59:24;30.08;;;23.05;;
47784;SDS011;35233;55.686;37.848;2023-09-12T12:01:53;30.48;;;23.40;;
47784;SDS011;35233;55.686;37.848;2023-09-12T12:04:22;27.58;;;21.77;;
47784;SDS011;35233;55.686;37.848;2023-09-12T12:06:51;27.20;;;21.73;;
47784;SDS011;35233;55.686;37.848;2023-09-12T12:09:18;27.50;;;21.70;;
47784;SDS011;35233;55.686;37.848;2023-09-12T12:11:47;28.25;;;20.65;;
47784;SDS011;35233;55.686;37.848;2023-09-12T12:14:14;27.30;;;20.80;;
47784;SDS011;35233;55.686;37.848;2023-09-12T12:16:41;27.88;;;20.90;;
47784;SDS011;35233;55.686;37.848;2023-09-12T12:19:08;26.05;;;20.75;;
47784;SDS011;35233;55.686;37.848;2023-09-12T12:21:34;26.52;;;20.60;;
47784;SDS011;35233;55.686;37.848;2023-09-12T12:24:01;27.80;;;20.55;;
47784;SDS011;35233;55.686;37.848;2023-09-12T12:26:28;25.58;;;19.80;;
47784;SDS011;35233;55.686;37.848;2023-09-12T12:28:55;26.77;;;21.23;;
47784;SDS011;35233;55.686;37.848;2023-09-12T12:31:21;30.17;;;23.33;;
47784;SDS011;35233;55.686;37.848;2023-09-12T12:33:50;33.80;;;25.40;;
47784;SDS011;35233;55.686;37.848;2023-09-12T12:36:18;32.47;;;25.30;;
47784;SDS011;35233;55.686;37.848;2023-09-12T12:38:44;34.25;;;25.98;;
47784;SDS011;35233;55.686;37.848;2023-09-12T12:41:12;33.20;;;25.73;;
47784;SDS011;35233;55.686;37.848;2023-09-12T12:43:42;33.50;;;25.38;;
47784;SDS011;35233;55.686;37.848;2023-09-12T12:46:11;34.47;;;25.52;;
47784;SDS011;35233;55.686;37.848;2023-09-12T12:48:38;35.40;;;26.80;;
47784;SDS011;35233;55.686;37.848;2023-09-12T12:51:12;35.05;;;26.15;;
47784;SDS011;35233;55.686;37.848;2023-09-12T12:53:52;31.30;;;24.30;;
47784;SDS011;35233;55.686;37.848;2023-09-12T12:56:23;32.60;;;25.45;;
47784;SDS011;35233;55.686;37.848;2023-09-12T12:58:54;34.90;;;26.58;;
47784;SDS011;35233;55.686;37.848;2023-09-12T13:01:22;39.63;;;28.95;;
47784;SDS011;35233;55.686;37.848;2023-09-12T13:03:48;36.83;;;29.15;;
47784;SDS011;35233;55.686;37.848;2023-09-12T13:06:17;38.25;;;29.65;;
47784;SDS011;35233;55.686;37.848;2023-09-12T13:08:44;38.50;;;29.63;;
47784;SDS011;35233;55.686;37.848;2023-09-12T13:11:12;38.58;;;30.95;;
47784;SDS011;35233;55.686;37.848;2023-09-12T13:13:39;39.70;;;30.15;;
47784;SDS011;35233;55.686;37.848;2023-09-12T13:16:08;38.08;;;29.52;;
47784;SDS011;35233;55.686;37.848;2023-09-12T13:18:36;41.00;;;29.55;;
47784;SDS011;35233;55.686;37.848;2023-09-12T13:21:02;41.90;;;32.97;;
47784;SDS011;35233;55.686;37.848;2023-09-12T13:23:28;39.42;;;31.65;;
47784;SDS011;35233;55.686;37.848;2023-09-12T13:25:54;41.45;;;31.42;;
47784;SDS011;35233;55.686;37.848;2023-09-12T13:28:21;46.33;;;32.85;;
47784;SDS011;35233;55.686;37.848;2023-09-12T13:30:51;39.40;;;31.13;;
47784;SDS011;35233;55.686;37.848;2023-09-12T13:33:17;41.60;;;32.03;;
47784;SDS011;35233;55.686;37.848;2023-09-12T13:35:43;44.78;;;35.10;;
47784;SDS011;35233;55.686;37.848;2023-09-12T13:38:09;48.88;;;37.63;;
47784;SDS011;35233;55.686;37.848;2023-09-12T13:40:40;50.97;;;39.15;;
47784;SDS011;35233;55.686;37.848;2023-09-12T13:43:07;49.63;;;38.25;;
47784;SDS011;35233;55.686;37.848;2023-09-12T13:45:33;50.42;;;40.22;;
47784;SDS011;35233;55.686;37.848;2023-09-12T13:47:59;51.90;;;39.58;;
47784;SDS011;35233;55.686;37.848;2023-09-12T13:50:26;53.25;;;42.35;;
47784;SDS011;35233;55.686;37.848;2023-09-12T13:52:55;53.20;;;41.72;;
47784;SDS011;35233;55.686;37.848;2023-09-12T13:55:24;55.17;;;42.42;;
47784;SDS011;35233;55.686;37.848;2023-09-12T13:57:50;54.95;;;43.15;;
47784;SDS011;35233;55.686;37.848;2023-09-12T14:00:16;53.78;;;42.10;;
47784;SDS011;35233;55.686;37.848;2023-09-12T14:02:42;49.95;;;41.03;;
47784;SDS011;35233;55.686;37.848;2023-09-12T14:05:09;55.90;;;42.88;;
47784;SDS011;35233;55.686;37.848;2023-09-12T14:07:36;52.42;;;42.05;;
47784;SDS011;35233;55.686;37.848;2023-09-12T14:10:02;50.22;;;40.58;;
47784;SDS011;35233;55.686;37.848;2023-09-12T14:12:28;52.20;;;41.40;;
47784;SDS011;35233;55.686;37.848;2023-09-12T14:14:53;47.88;;;39.50;;
47784;SDS011;35233;55.686;37.848;2023-09-12T14:17:19;50.38;;;39.67;;
47784;SDS011;35233;55.686;37.848;2023-09-12T14:19:45;50.40;;;40.22;;
47784;SDS011;35233;55.686;37.848;2023-09-12T14:22:11;47.85;;;39.08;;
47784;SDS011;35233;55.686;37.848;2023-09-12T14:24:36;46.03;;;38.13;;